Data for 07/06/2009

Time Sea-Level Adjusted Pressure Absolute Pressure Temperature Relative Humidity Dew Point   
(mb) (inHg) (mb) (inHg) (C) (F) (%) (C) (F)
00:05 1019 30.09 848 25.04 17.3 63.2 55 8.3 47
00:10 1019 30.09 848 25.04 17.1 62.9 57 8.6 47.4
00:15 1019 30.09 848 25.04 17 62.6 57 8.4 47.2
00:20 1019 30.09 848 25.04 17 62.5 59 8.9 48.1
00:25 1019 30.09 848 25.04 17 62.7 56 8.3 46.9
00:30 1019 30.09 848 25.04 17 62.6 58 8.6 47.5
00:35 1019 30.09 848 25.04 16.6 61.8 61 9 48.2
00:40 1019 30.09 848 25.04 16.3 61.3 62 8.9 48.1
00:45 1019 30.09 848 25.04 16.1 61.1 61 8.8 47.8
00:50 1019 30.09 848 25.04 16.2 61.2 61 8.7 47.7
00:55 1019 30.09 848 25.04 16.3 61.3 60 8.7 47.7
01:00 1019 30.09 848 25.04 16.3 61.3 60 8.6 47.4
01:05 1019 30.09 848 25.04 16.3 61.4 59 8.5 47.3
01:10 1019 30.09 848 25.04 16.3 61.4 60 8.6 47.5
01:15 1019 30.09 848 25.04 16.2 61.1 61 8.7 47.7
01:20 1019 30.09 848 25.04 16 60.7 62 8.9 47.9
01:25 1019 30.09 848 25.04 15.9 60.7 62 8.6 47.5
01:30 1019 30.09 848 25.04 15.9 60.6 62 8.8 47.8
01:35 1019 30.09 848 25.04 15.8 60.4 64 9.1 48.5
01:40 1019 30.09 848 25.04 15.6 60.1 65 9 48.3
01:45 1019 30.09 848 25.04 15.5 60 64 8.8 47.8
01:50 1019 30.09 848 25.04 15.8 60.4 62 8.5 47.4
01:55 1019 30.09 848 25.04 15.9 60.7 61 8.4 47.1
02:00 1019 30.09 848 25.04 16.1 61 60 8.4 47.2
02:05 1019 30.09 848 25.04 16.1 60.9 62 8.8 47.8
02:10 1019 30.09 848 25.04 15.8 60.5 63 8.9 48
02:15 1018 30.06 848 25.04 15.8 60.5 62 8.6 47.5
02:20 1018 30.06 847 25.01 15.8 60.5 61 8.4 47.2
02:25 1018 30.06 847 25.01 15.8 60.4 63 8.8 47.8
02:30 1018 30.06 847 25.01 15.6 60.1 64 8.9 48
02:35 1018 30.06 847 25.01 15.6 60 62 8.5 47.2
02:40 1018 30.06 847 25.01 15.8 60.4 61 8.4 47.1
02:45 1018 30.06 847 25.01 15.9 60.7 61 8.4 47.1
02:50 1018 30.06 848 25.04 16.2 61.2 58 8.1 46.7
02:55 1019 30.09 848 25.04 16.6 61.8 57 8.2 46.8
03:00 1019 30.09 848 25.04 16.8 62.2 59 8.9 48.1
03:05 1019 30.09 848 25.04 16.6 61.9 66 10.2 50.4
03:10 1019 30.09 848 25.04 16.3 61.3 64 9.4 48.9
03:15 1019 30.09 848 25.04 15.9 60.7 64 9.3 48.8
03:20 1019 30.09 848 25.04 15.9 60.5 65 9.3 48.7
03:25 1019 30.09 848 25.04 16.1 61 62 8.9 48
03:30 1018 30.06 847 25.01 16.7 62 57 8.2 46.7
03:35 1018 30.06 847 25.01 17.6 63.6 55 8.4 47.2
03:40 1018 30.06 847 25.01 17.1 62.7 59 9.1 48.5
03:45 1018 30.06 847 25.01 16.6 61.8 61 9 48.2
03:50 1017 30.03 847 25.01 16.3 61.3 60 8.5 47.3
03:55 1017 30.03 847 25.01 16.2 61.1 60 8.6 47.5
04:00 1017 30.03 847 25.01 16.1 61.1 61 8.6 47.5
04:05 1017 30.03 847 25.01 16.1 60.9 61 8.7 47.7
04:10 1017 30.03 846 24.98 16 60.8 61 8.5 47.3
04:15 1017 30.03 846 24.98 16 60.8 61 8.4 47.2
04:20 1017 30.03 846 24.98 16 60.8 60 8.4 47.2
04:25 1017 30.03 846 24.98 16.1 60.9 60 8.3 46.9
04:30 1017 30.03 846 24.98 16.1 61.1 60 8.4 47.2
04:35 1017 30.03 846 24.98 16.1 61 60 8.4 47.1
04:40 1017 30.03 846 24.98 16.1 60.9 61 8.7 47.7
04:45 1017 30.03 846 24.98 15.9 60.5 63 8.9 48
04:50 1017 30.03 846 24.98 15.7 60.3 64 9 48.2
04:55 1017 30.03 846 24.98 15.5 59.9 65 9 48.1
05:00 1017 30.03 846 24.98 15.5 59.9 64 8.9 47.9
05:05 1017 30.03 846 24.98 15.4 59.7 64 8.8 47.8
05:10 1017 30.03 846 24.98 15.2 59.3 64 8.6 47.4
05:15 1017 30.03 846 24.98 15.2 59.3 66 8.9 48.1
05:20 1017 30.03 846 24.98 15.1 59.1 66 8.7 47.7
05:25 1017 30.03 846 24.98 15 59.1 65 8.7 47.6
05:30 1017 30.03 846 24.98 15.2 59.4 64 8.6 47.4
05:35 1017 30.03 846 24.98 15.3 59.5 66 8.9 48.1
05:40 1017 30.03 846 24.98 15.2 59.3 65 8.6 47.5
05:45 1017 30.03 846 24.98 15.2 59.4 64 8.5 47.3
05:50 1017 30.03 846 24.98 15.2 59.4 64 8.7 47.6
05:55 1017 30.03 846 24.98 15 59.1 65 8.7 47.6
06:00 1017 30.03 846 24.98 14.9 58.9 66 8.6 47.5
06:05 1017 30.03 846 24.98 14.9 58.9 64 8.3 46.9
06:10 1017 30.03 846 24.98 15 59 64 8.4 47.1
06:15 1017 30.03 846 24.98 15 58.9 65 8.4 47.2
06:20 1017 30.03 846 24.98 14.9 58.8 68 9 48.2
06:25 1017 30.03 846 24.98 14.8 58.7 67 8.9 48
06:30 1017 30.03 846 24.98 14.6 58.4 69 9 48.2
06:35 1017 30.03 846 24.98 14.5 58.1 69 9 48.1
06:40 1017 30.03 846 24.98 14.3 57.8 69 8.8 47.8
06:45 1017 30.03 846 24.98 14.1 57.4 71 9 48.3
06:50 1017 30.03 846 24.98 13.9 57.1 71 8.8 47.8
06:55 1017 30.03 846 24.98 13.9 57 71 8.8 47.8
07:00 1017 30.03 846 24.98 14 57.1 71 8.7 47.7
07:05 1017 30.03 846 24.98 14 57.3 70 8.7 47.7
07:10 1017 30.03 846 24.98 14.2 57.6 70 8.8 47.9
07:15 1017 30.03 846 24.98 14.5 58.2 68 8.9 47.9
07:20 1017 30.03 846 24.98 14.9 58.9 67 9 48.2
07:25 1017 30.03 846 24.98 15.2 59.4 67 9.2 48.6
07:30 1017 30.03 846 24.98 15.4 59.8 66 9.1 48.4
07:35 1017 30.03 846 24.98 15.7 60.3 62 8.6 47.5
07:40 1017 30.03 846 24.98 16.2 61.2 62 9 48.3
07:45 1017 30.03 846 24.98 16.4 61.5 61 9 48.1
07:50 1017 30.03 846 24.98 16.5 61.6 60 8.7 47.7
07:55 1017 30.03 846 24.98 16.4 61.6 60 8.8 47.8
08:00 1017 30.03 846 24.98 16.6 61.9 59 8.6 47.4
08:05 1017 30.03 846 24.98 17.2 62.9 57 8.7 47.7
08:10 1017 30.03 846 24.98 16.9 62.4 59 8.8 47.9
08:15 1017 30.03 846 24.98 17.3 63.1 57 8.7 47.7
08:20 1017 30.03 846 24.98 18.4 65.1 52 8.4 47.1
08:25 1017 30.03 846 24.98 19.1 66.4 51 8.8 47.8
08:30 1017 30.03 846 24.98 18.9 66.1 51 8.7 47.6
08:35 1017 30.03 846 24.98 18.8 65.8 52 8.8 47.9
08:40 1017 30.03 846 24.98 18.5 65.3 53 8.8 47.9
08:45 1017 30.03 846 24.98 19 66.3 53 9.3 48.8
08:50 1016 30 846 24.98 18.7 65.7 54 9.4 48.9
08:55 1016 30 846 24.98 19 66.2 53 9.3 48.7
09:00 1016 30 846 24.98 19.4 66.8 55 10.1 50.3
09:05 1016 30 845 24.95 19.3 66.7 53 9.6 49.3
09:10 1016 30 845 24.95 19.5 67 51 9.2 48.6
09:15 1016 30 845 24.95 19.4 66.9 52 9.3 48.8
09:20 1016 30 845 24.95 19.5 67.1 52 9.5 49.1
09:25 1016 30 845 24.95 19.5 67.1 50 9.1 48.3
09:30 1016 30 845 24.95 19.4 66.9 49 8.6 47.6
09:35 1016 30 845 24.95 19.9 67.9 51 9.5 49.1
09:40 1016 30 845 24.95 20.3 68.5 48 9 48.3
09:45 1016 30 845 24.95 20.2 68.4 52 10.1 50.2
09:50 1016 30 845 24.95 20.2 68.4 50 9.8 49.6
09:55 1016 30 845 24.95 20.5 68.8 48 9.3 48.8
10:00 1015 29.97 845 24.95 21.4 70.5 47 9.8 49.7
10:05 1015 29.97 845 24.95 21.5 70.7 46 9.5 49.2
10:10 1015 29.97 845 24.95 21.9 71.4 43 8.9 48.1
10:15 1015 29.97 844 24.92 21.8 71.2 44 9.3 48.7
10:20 1015 29.97 844 24.92 22.2 71.9 42 8.9 48.1
10:25 1015 29.97 844 24.92 22.3 72.1 41 8.6 47.5
10:30 1015 29.97 844 24.92 22.6 72.6 41 8.8 47.9
10:35 1015 29.97 844 24.92 22.6 72.6 42 9.1 48.3
10:40 1015 29.97 844 24.92 23.2 73.8 38 8.5 47.2
10:45 1015 29.97 844 24.92 23.5 74.3 40 9.3 48.7
10:50 1015 29.97 844 24.92 23.4 74.2 39 8.9 48
10:55 1015 29.97 844 24.92 23.4 74 39 8.9 48
11:00 1015 29.97 844 24.92 23.8 74.8 38 8.9 48
11:05 1014 29.94 844 24.92 23.8 74.8 40 9.6 49.2
11:10 1014 29.94 844 24.92 23.9 74.9 39 9.2 48.6
11:15 1014 29.94 844 24.92 24 75.1 42 10.5 50.8
11:20 1014 29.94 844 24.92 24.6 76.3 39 10 50
11:25 1014 29.94 844 24.92 25 77 39 10.2 50.3
11:30 1014 29.94 844 24.92 24.7 76.5 42 11 51.9
11:35 1014 29.94 843 24.89 24.1 75.4 42 10.5 50.9
11:40 1014 29.94 843 24.89 24.4 75.8 40 10 50
11:45 1014 29.94 843 24.89 25 76.9 39 10.1 50.2
11:50 1014 29.94 843 24.89 24.8 76.6 39 10.2 50.4
11:55 1014 29.94 843 24.89 25 77 38 9.8 49.7
12:00 1014 29.94 843 24.89 25 77 39 10.4 50.6
12:05 1014 29.94 843 24.89 25.3 77.6 37 10 50
12:10 1014 29.94 843 24.89 24.9 76.7 37 9.4 48.9
12:15 1014 29.94 843 24.89 25.5 78 38 10.5 50.9
12:20 1014 29.94 843 24.89 25.4 77.8 36 9.6 49.3
12:25 1014 29.94 843 24.89 25.3 77.5 38 10.4 50.7
12:30 1014 29.94 843 24.89 24.8 76.6 37 9.5 49
12:35 1014 29.94 843 24.89 25.4 77.6 37 9.7 49.4
12:40 1014 29.94 843 24.89 26 78.9 34 9.2 48.5
12:45 1013 29.91 843 24.89 25.8 78.4 36 9.6 49.4
12:50 1013 29.91 843 24.89 25.7 78.3 36 9.6 49.3
12:55 1013 29.91 842 24.86 26.3 79.3 35 9.6 49.4
13:00 1013 29.91 842 24.86 26.6 79.8 35 10.2 50.4
13:05 1013 29.91 842 24.86 26.4 79.5 35 9.9 49.8
13:10 1013 29.91 842 24.86 25.9 78.5 37 10.2 50.3
13:15 1013 29.91 842 24.86 25.2 77.4 38 10.2 50.4
13:20 1013 29.91 842 24.86 24.8 76.6 39 10.2 50.4
13:25 1013 29.91 842 24.86 24.9 76.9 40 10.5 51
13:30 1013 29.91 842 24.86 25.2 77.4 38 10.2 50.4
13:35 1013 29.91 842 24.86 25.5 77.8 38 10.2 50.4
13:40 1013 29.91 842 24.86 25.7 78.2 37 10.2 50.4
13:45 1013 29.91 842 24.86 25.3 77.6 38 10.1 50.2
13:50 1013 29.91 842 24.86 24.3 75.8 40 10.1 50.2
13:55 1013 29.91 842 24.86 24.1 75.3 42 10.5 50.8
14:00 1013 29.91 842 24.86 23.4 74.1 44 10.5 50.9
14:05 1012 29.88 842 24.86 23.3 73.9 44 10.4 50.7
14:10 1012 29.88 842 24.86 23.1 73.6 46 11.1 52
14:15 1012 29.88 842 24.86 23.1 73.5 46 11 51.8
14:20 1012 29.88 841 24.83 23.7 74.6 43 10.7 51.3
14:25 1012 29.88 841 24.83 24.2 75.5 40 10.1 50.2
14:30 1012 29.88 841 24.83 24.4 76 39 9.9 49.8
14:35 1012 29.88 841 24.83 24.2 75.5 40 10.1 50.2
14:40 1012 29.88 841 24.83 23.9 75 41 9.9 49.9
14:45 1011 29.85 841 24.83 24 75.2 39 9.5 49.1
14:50 1011 29.85 840 24.81 24.3 75.8 39 9.8 49.7
14:55 1011 29.85 840 24.81 24.7 76.4 39 9.9 49.8
15:00 1011 29.85 840 24.81 25.1 77.1 36 9.2 48.6
15:05 1011 29.85 840 24.81 25.4 77.6 36 9.6 49.3
15:10 1011 29.85 840 24.81 25.3 77.6 35 8.9 48
15:15 1011 29.85 840 24.81 25.4 77.7 34 8.6 47.4
15:20 1011 29.85 840 24.81 25.4 77.7 34 8.6 47.5
15:25 1011 29.85 840 24.81 25.8 78.4 33 8.3 47
15:30 1011 29.85 840 24.81 25 77.1 36 9.2 48.6
15:35 1011 29.85 840 24.81 24.6 76.3 38 9.4 48.9
15:40 1011 29.85 840 24.81 24.4 75.9 39 9.8 49.7
15:45 1011 29.85 840 24.81 24.4 75.9 39 9.8 49.7
15:50 1011 29.85 840 24.81 24.2 75.5 42 10.6 51.1
15:55 1011 29.85 840 24.81 23.9 75 42 10.6 51
16:00 1011 29.85 840 24.81 23.7 74.6 43 10.7 51.2
16:05 1011 29.85 840 24.81 23.6 74.5 43 10.5 50.9
16:10 1011 29.85 840 24.81 23.6 74.4 43 10.6 51.1
16:15 1011 29.85 840 24.81 23.6 74.4 43 10.4 50.8
16:20 1011 29.85 840 24.81 23.5 74.4 44 10.6 51.1
16:25 1011 29.85 840 24.81 23.5 74.2 42 10.1 50.2
16:30 1011 29.85 840 24.81 23.2 73.8 41 9.3 48.8
16:35 1011 29.85 840 24.81 23.1 73.6 41 9.3 48.8
16:40 1012 29.88 841 24.83 23.1 73.5 41 9.1 48.4
16:45 1011 29.85 840 24.81 23 73.3 40 8.7 47.7
16:50 1011 29.85 841 24.83 22.9 73.2 37 7.8 46
16:55 1011 29.85 841 24.83 23 73.3 37 7.9 46.2
17:00 1011 29.85 840 24.81 23.1 73.5 35 7.1 44.8
17:05 1011 29.85 841 24.83 23.3 73.9 34 6.6 43.8
17:10 1011 29.85 841 24.83 23.5 74.4 33 6.6 43.8
17:15 1011 29.85 841 24.83 23.5 74.3 33 6.6 43.9
17:20 1012 29.88 841 24.83 23.6 74.4 33 6.7 44.1
17:25 1012 29.88 841 24.83 23.8 74.8 34 7.1 44.7
17:30 1012 29.88 841 24.83 23.7 74.7 34 7 44.5
17:35 1011 29.85 840 24.81 23.9 75 33 7 44.6
17:40 1011 29.85 840 24.81 23.5 74.3 32 6.2 43.1
17:45 1011 29.85 840 24.81 23.4 74.1 30 5.1 41.2
17:50 1011 29.85 840 24.81 23.3 74 27 3.6 38.5
17:55 1011 29.85 840 24.81 22.8 73 30 4.4 39.9
18:00 1012 29.88 841 24.83 22.7 72.9 30 4.2 39.6
18:05 1011 29.85 841 24.83 22.4 72.4 32 5.3 41.6
18:10 1011 29.85 840 24.81 22 71.7 33 5.2 41.4
18:15 1012 29.88 841 24.83 21.9 71.4 35 5.8 42.4
18:20 1012 29.88 842 24.86 21.7 71.1 37 6.6 43.8
18:25 1013 29.91 842 24.86 20.6 69 49 9.6 49.2
18:30 1013 29.91 842 24.86 18.3 65 64 11.6 52.8
18:35 1013 29.91 842 24.86 16.3 61.4 71 11.2 52.1
18:40 1013 29.91 843 24.89 15.9 60.6 71 10.8 51.4
18:45 1013 29.91 843 24.89 15.9 60.6 76 11.8 53.2
18:50 1014 29.94 843 24.89 16 60.8 72 10.9 51.7
18:55 1014 29.94 843 24.89 15.6 60.1 76 11.4 52.5
19:00 1014 29.94 843 24.89 15.2 59.3 79 11.6 52.8
19:05 1014 29.94 843 24.89 15.1 59.2 79 11.5 52.7
19:10 1014 29.94 843 24.89 15.2 59.4 77 11.3 52.3
19:15 1014 29.94 844 24.92 15.2 59.4 79 11.7 53
19:20 1015 29.97 844 24.92 15.4 59.7 79 11.8 53.2
19:25 1015 29.97 844 24.92 15.4 59.8 79 11.9 53.5
19:30 1015 29.97 844 24.92 15.5 59.8 77 11.5 52.8
19:35 1015 29.97 844 24.92 15.6 60.1 74 11.1 52
19:40 1015 29.97 844 24.92 15.9 60.7 70 10.6 51.1
19:45 1015 29.97 844 24.92 16.1 61 72 11.1 51.9
19:50 1015 29.97 844 24.92 16 60.8 71 10.8 51.4
19:55 1015 29.97 845 24.95 15.9 60.6 73 11.2 52.2
20:00 1016 30 845 24.95 15.7 60.2 75 11.3 52.4
20:05 1016 30 845 24.95 15.6 60.1 76 11.4 52.6
20:10 1016 30 845 24.95 15.7 60.3 72 10.7 51.2
20:15 1016 30 845 24.95 15.8 60.4 72 10.8 51.4
20:20 1016 30 845 24.95 15.8 60.4 70 10.3 50.5
20:25 1016 30 845 24.95 15.7 60.2 70 10.3 50.5
20:30 1016 30 845 24.95 15.6 60 73 10.8 51.5
20:35 1016 30 845 24.95 15.4 59.7 73 10.6 51.1
20:40 1016 30 845 24.95 15.1 59.2 77 11.2 52.2
20:45 1016 30 845 24.95 15 59 76 10.8 51.4
20:50 1016 30 845 24.95 15.1 59.2 76 11 51.9
20:55 1016 30 846 24.98 14.6 58.3 82 11.6 53
21:00 1017 30.03 846 24.98 14.3 57.8 80 10.9 51.6
21:05 1017 30.03 846 24.98 14.3 57.8 78 10.6 51.1
21:10 1017 30.03 846 24.98 14.5 58 74 10 49.9
21:15 1017 30.03 846 24.98 14.7 58.5 75 10.4 50.7
21:20 1017 30.03 846 24.98 14.6 58.3 76 10.5 50.9
21:25 1017 30.03 846 24.98 14.5 58.2 79 10.9 51.7
21:30 1017 30.03 847 25.01 14 57.2 84 11.4 52.5
21:35 1017 30.03 847 25.01 13.7 56.6 86 11.4 52.5
21:40 1017 30.03 847 25.01 13.5 56.2 87 11.4 52.6
21:45 1018 30.06 847 25.01 13.4 56.1 88 11.5 52.6
21:50 1018 30.06 847 25.01 13.3 56 88 11.4 52.5
21:55 1018 30.06 847 25.01 13.2 55.8 89 11.6 52.8
22:00 1018 30.06 847 25.01 13 55.4 90 11.4 52.6
22:05 1018 30.06 847 25.01 12.9 55.1 91 11.4 52.5
22:10 1018 30.06 847 25.01 12.8 55 91 11.4 52.5
22:15 1018 30.06 847 25.01 12.8 55 90 11.2 52.1
22:20 1018 30.06 847 25.01 12.8 55 90 11.1 52.1
22:25 1017 30.03 847 25.01 12.8 55 90 11.1 52
22:30 1018 30.06 847 25.01 12.8 55.1 89 11.1 52
22:35 1017 30.03 847 25.01 12.8 55.1 89 11 51.9
22:40 1017 30.03 847 25.01 12.8 55.1 89 11 51.8
22:45 1018 30.06 847 25.01 12.7 54.9 90 11.1 52
22:50 1017 30.03 847 25.01 12.6 54.6 84 10 50.1
22:55 1017 30.03 847 25.01 13 55.5 85 10.6 51.1
23:00 1017 30.03 847 25.01 12.7 54.8 86 10.5 50.9
23:05 1017 30.03 847 25.01 12.6 54.8 86 10.3 50.6
23:10 1017 30.03 846 24.98 12.8 55 85 10.4 50.7
23:15 1017 30.03 846 24.98 12.5 54.5 89 10.8 51.4
23:20 1017 30.03 846 24.98 12.3 54.1 90 10.6 51.1
23:25 1017 30.03 846 24.98 12.2 53.9 91 10.7 51.2
23:30 1017 30.03 847 25.01 12 53.5 91 10.6 51.1
23:35 1017 30.03 847 25.01 11.8 53.3 92 10.6 51
23:40 1017 30.03 847 25.01 11.7 53.1 92 10.5 50.9
23:45 1017 30.03 847 25.01 11.7 53.1 91 10.3 50.5
23:50 1017 30.03 847 25.01 11.8 53.2 90 10.3 50.5
23:55 1017 30.03 847 25.01 11.8 53.2 91 10.4 50.7
24:00 1018 30.06 847 25.01 11.7 53.1 91 10.2 50.4